Time;durP1;ratioP1;P1;durP2;ratioP2;P2;SDS_P1;SDS_P2;PMS_P1;PMS_P2;Temp;Humidity;BMP_temperature;BMP_pressure;BME280_temperature;BME280_humidity;BME280_pressure;Samples;Min_cycle;Max_cycle;Signal;HPM_P1;HPM_P2
2023/07/06 00:01:23;;;;;;;14.70;11.00;;;;;;;23.77;61.01;100500.56;105418;1261;61382;-62
2023/07/06 00:03:51;;;;;;;13.20;10.80;;;;;;;23.73;60.94;100499.89;104836;1264;66780;-60
2023/07/06 00:06:18;;;;;;;16.60;10.50;;;;;;;23.71;61.07;100501.92;104953;1260;60463;-60
2023/07/06 00:08:46;;;;;;;15.10;11.50;;;;;;;23.70;60.90;100499.15;104999;1260;59296;-60
2023/07/06 00:11:36;;;;;;;16.20;10.90;;;;;;;23.72;61.09;100499.98;104847;1258;65075;-60
2023/07/06 00:14:04;;;;;;;13.20;10.30;;;;;;;23.76;61.11;100498.41;104946;1267;61308;-62
2023/07/06 00:16:32;;;;;;;15.10;11.00;;;;;;;23.76;61.36;100496.98;104989;1260;62468;-59
2023/07/06 00:19:11;;;;;;;13.90;10.70;;;;;;;23.75;61.44;100502.50;105037;1257;60579;-61
2023/07/06 00:21:40;;;;;;;15.00;11.30;;;;;;;23.72;61.50;100501.38;105125;1258;60963;-59
2023/07/06 00:24:08;;;;;;;16.10;11.70;;;;;;;23.72;61.59;100497.86;105036;1263;64872;-59
2023/07/06 00:26:55;;;;;;;17.30;11.60;;;;;;;23.70;61.68;100498.37;105009;1256;61367;-60
2023/07/06 00:29:23;;;;;;;15.70;11.20;;;;;;;23.74;61.66;100495.21;105241;1257;62642;-60
2023/07/06 00:31:53;;;;;;;15.90;10.60;;;;;;;23.79;61.63;100493.15;104982;1264;60496;-60
2023/07/06 00:34:48;;;;;;;13.10;11.00;;;;;;;23.83;61.40;100495.16;105450;1258;60495;-59
2023/07/06 00:37:15;;;;;;;12.80;10.20;;;;;;;23.84;61.52;100495.33;105151;1259;63711;-60
2023/07/06 00:39:44;;;;;;;15.40;10.80;;;;;;;23.83;61.28;100495.83;105871;1257;61944;-59
2023/07/06 00:42:14;;;;;;;14.40;11.00;;;;;;;23.78;61.13;100498.29;105156;1262;63731;-62
2023/07/06 00:44:59;;;;;;;15.30;11.00;;;;;;;23.72;61.52;100498.15;104943;1264;60461;-59
2023/07/06 00:47:29;;;;;;;12.60;10.20;;;;;;;23.71;61.79;100496.21;105138;1264;59942;-59
2023/07/06 00:50:01;;;;;;;13.50;9.70;;;;;;;23.70;61.88;100497.33;105261;1263;65007;-59
2023/07/06 00:52:30;;;;;;;13.90;10.20;;;;;;;23.70;61.88;100495.39;104987;1263;60585;-60
2023/07/06 00:54:59;;;;;;;15.90;10.70;;;;;;;23.69;61.93;100499.66;104841;1261;72487;-59
2023/07/06 00:57:26;;;;;;;19.50;11.10;;;;;;;23.67;62.10;100503.53;104951;1260;61735;-59
2023/07/06 00:59:54;;;;;;;15.90;11.60;;;;;;;23.61;61.90;100503.77;104809;1264;61396;-60
2023/07/06 01:02:21;;;;;;;15.40;11.70;;;;;;;23.57;61.96;100500.14;105114;1261;64902;-58
2023/07/06 01:04:51;;;;;;;14.70;11.20;;;;;;;23.57;61.82;100499.82;104855;1266;62001;-56
2023/07/06 01:07:21;;;;;;;14.60;11.40;;;;;;;23.56;61.96;100505.27;105079;1260;63708;-59
2023/07/06 01:09:49;;;;;;;12.90;10.80;;;;;;;23.55;62.05;100505.96;105718;1260;60569;-57
2023/07/06 01:12:17;;;;;;;15.00;11.80;;;;;;;23.54;62.22;100499.30;105096;1261;60455;-59
2023/07/06 01:14:45;;;;;;;16.40;10.70;;;;;;;23.53;62.07;100496.91;104920;1260;64989;-59
2023/07/06 01:17:20;;;;;;;15.60;12.70;;;;;;;23.53;62.10;100500.63;105072;1264;60457;-59
2023/07/06 01:19:54;;;;;;;;;;;;;;;23.54;62.07;100498.35;105278;1264;63757;-60
2023/07/06 01:22:35;;;;;;;12.80;10.30;;;;;;;23.55;62.04;100502.58;105096;1260;60611;-57
2023/07/06 01:25:08;;;;;;;14.70;10.30;;;;;;;23.53;62.02;100497.33;105098;1261;60529;-59
2023/07/06 01:27:59;;;;;;;13.30;10.90;;;;;;;23.51;62.48;100502.11;104904;1265;65074;-58
2023/07/06 01:30:33;;;;;;;14.90;11.00;;;;;;;23.49;62.62;100501.58;105048;1261;61377;-60
2023/07/06 01:33:03;;;;;;;18.20;11.70;;;;;;;23.47;62.65;100503.89;105109;1259;63784;-60
2023/07/06 01:36:03;;;;;;;17.60;11.30;;;;;;;23.44;62.99;100503.92;104978;1266;60568;-59
2023/07/06 01:38:31;;;;;;;13.60;10.80;;;;;;;23.47;62.97;100506.41;104876;1262;60617;-59
2023/07/06 01:40:59;;;;;;;15.60;10.90;;;;;;;23.49;62.86;100504.59;105066;1259;65438;-60
2023/07/06 01:43:27;;;;;;;16.50;11.50;;;;;;;23.50;62.84;100500.00;104942;1259;61403;-60
2023/07/06 01:45:55;;;;;;;15.20;10.90;;;;;;;23.52;62.93;100498.35;105287;1261;64402;-60
2023/07/06 01:48:24;;;;;;;15.00;11.10;;;;;;;23.50;63.04;100504.48;105053;1260;60553;-58
2023/07/06 01:51:19;;;;;;;15.30;10.70;;;;;;;23.45;63.16;100508.92;105098;1263;60407;-59
2023/07/06 01:53:54;;;;;;;12.10;10.70;;;;;;;23.39;63.21;100512.84;107435;1259;65025;-58
2023/07/06 01:56:25;;;;;;;15.60;11.10;;;;;;;23.34;63.36;100515.06;107789;1260;61986;-61
2023/07/06 01:59:03;;;;;;;13.90;11.80;;;;;;;23.31;63.24;100509.56;106084;1264;63728;-59
2023/07/06 02:01:42;;;;;;;15.90;11.60;;;;;;;23.27;63.04;100505.52;107157;1264;60378;-60
2023/07/06 02:04:10;;;;;;;16.30;11.70;;;;;;;23.23;63.00;100500.31;105544;1259;60698;-59
2023/07/06 02:06:38;;;;;;;14.90;11.30;;;;;;;23.21;62.90;100498.52;106871;1259;64953;-59
2023/07/06 02:09:06;;;;;;;17.80;12.50;;;;;;;23.20;63.18;100498.27;104953;1259;61326;-59
2023/07/06 02:11:35;;;;;;;14.00;11.30;;;;;;;23.22;63.26;100493.98;105252;1264;63724;-66
2023/07/06 02:14:02;;;;;;;15.90;11.50;;;;;;;23.27;63.22;100495.23;105172;1261;60493;-64
2023/07/06 02:20:26;;;;;;;13.60;10.20;;;;;;;23.40;63.59;100492.52;105573;1264;64877;-63
2023/07/06 02:22:53;;;;;;;13.60;11.20;;;;;;;23.46;63.79;100485.91;105485;1259;61438;-63
2023/07/06 02:25:21;;;;;;;14.10;11.40;;;;;;;23.49;64.00;100481.50;105533;1260;62673;-65
2023/07/06 02:31:47;;;;;;;13.90;10.60;;;;;;;23.59;64.16;100473.11;105541;1260;60496;-66
2023/07/06 02:34:33;;;;;;;13.10;11.40;;;;;;;23.68;64.20;100473.48;105235;1260;65273;-66
2023/07/06 02:37:00;;;;;;;12.90;11.20;;;;;;;23.76;64.24;100472.26;105525;1259;61490;-62
2023/07/06 02:39:28;;;;;;;12.80;10.50;;;;;;;23.82;64.50;100474.48;104993;1264;62531;-59
2023/07/06 02:42:14;;;;;;;13.40;10.70;;;;;;;23.88;64.52;100475.48;104692;1259;60588;-59
2023/07/06 02:44:43;;;;;;;13.00;11.10;;;;;;;23.88;64.62;100473.11;104785;1270;60402;-60
2023/07/06 02:47:13;;;;;;;15.10;11.50;;;;;;;23.91;65.00;100466.98;105126;1260;63725;-61
2023/07/06 02:49:41;;;;;;;12.60;10.60;;;;;;;23.96;65.08;100464.94;104793;1261;63180;-60
2023/07/06 02:55:58;;;;;;;14.40;11.30;;;;;;;24.06;64.72;100478.56;104851;1260;61151;-58
2023/07/06 02:58:27;;;;;;;13.30;10.10;;;;;;;24.12;64.48;100481.08;104952;1270;61093;-58
2023/07/06 03:00:55;;;;;;;13.20;10.50;;;;;;;24.17;64.41;100476.39;105191;1259;64957;-57
2023/07/06 03:07:19;;;;;;;14.40;11.10;;;;;;;24.22;64.03;100472.82;104838;1258;65391;-56
2023/07/06 03:09:46;;;;;;;13.90;10.50;;;;;;;24.23;63.76;100476.05;104713;1259;61010;-54
2023/07/06 03:12:14;;;;;;;13.70;10.60;;;;;;;24.26;63.53;100480.64;105276;1264;60481;-56
2023/07/06 03:14:46;;;;;;;13.30;10.60;;;;;;;24.28;63.56;100478.55;105224;1263;65022;-57
2023/07/06 03:17:14;;;;;;;14.70;11.30;;;;;;;24.33;63.51;100472.21;105153;1263;61620;-57
2023/07/06 03:19:41;;;;;;;14.10;10.80;;;;;;;24.37;63.58;100467.54;105198;1259;64333;-53
2023/07/06 03:22:10;;;;;;;16.10;10.20;;;;;;;24.47;63.56;100461.99;105360;1259;60606;-52
2023/07/06 03:24:38;;;;;;;14.00;10.70;;;;;;;24.43;63.68;100462.00;105191;1259;60487;-53
2023/07/06 03:27:06;;;;;;;12.90;10.70;;;;;;;24.35;63.85;100455.71;104977;1258;65075;-57
2023/07/06 03:29:35;;;;;;;15.70;10.30;;;;;;;24.28;64.01;100456.39;105964;1257;61443;-57
2023/07/06 03:32:04;;;;;;;13.80;10.90;;;;;;;24.23;64.23;100460.08;105052;1258;62533;-57
2023/07/06 03:34:32;;;;;;;13.70;9.80;;;;;;;24.23;64.05;100457.28;105140;1257;60501;-56
2023/07/06 03:37:02;;;;;;;12.60;9.50;;;;;;;24.25;64.00;100451.02;105215;1258;60557;-60
2023/07/06 03:39:29;;;;;;;13.70;10.70;;;;;;;24.27;63.77;100448.48;105208;1258;64959;-58
2023/07/06 03:41:57;;;;;;;12.60;10.70;;;;;;;24.26;63.73;100444.80;105009;1257;61402;-59
2023/07/06 03:44:25;;;;;;;17.70;10.90;;;;;;;24.22;63.65;100442.25;105098;1260;63817;-59
2023/07/06 03:46:52;;;;;;;13.10;10.20;;;;;;;24.21;63.50;100434.16;104904;1260;60499;-59
2023/07/06 03:49:19;;;;;;;14.90;10.30;;;;;;;24.23;63.55;100431.59;104956;1263;60403;-58
2023/07/06 03:51:47;;;;;;;12.70;9.80;;;;;;;24.26;63.32;100425.23;105364;1262;65491;-58
2023/07/06 03:54:15;;;;;;;13.60;10.10;;;;;;;24.27;63.07;100421.77;104993;1260;61799;-60
2023/07/06 03:56:43;;;;;;;12.40;9.30;;;;;;;24.32;62.76;100421.29;105035;1259;63694;-60
2023/07/06 03:59:23;;;;;;;12.70;10.20;;;;;;;24.42;62.00;100421.47;105159;1258;60633;-60
2023/07/06 04:01:51;;;;;;;15.60;10.50;;;;;;;24.44;61.59;100422.27;104865;1262;60467;-60
2023/07/06 04:04:19;;;;;;;12.80;9.50;;;;;;;24.47;61.57;100419.59;104837;1257;64986;-59
2023/07/06 04:06:46;;;;;;;12.00;10.30;;;;;;;24.49;61.53;100415.85;105153;1258;60464;-60
2023/07/06 04:09:14;;;;;;;11.10;9.40;;;;;;;24.53;61.43;100413.57;105429;1259;63767;-60
2023/07/06 04:11:42;;;;;;;12.10;9.70;;;;;;;24.53;61.55;100411.88;104877;1257;60565;-59
2023/07/06 04:14:09;;;;;;;16.10;10.00;;;;;;;24.42;62.04;100410.00;105108;1263;60406;-59
2023/07/06 04:16:38;;;;;;;11.70;9.90;;;;;;;24.38;61.88;100404.80;105060;1260;63711;-58
2023/07/06 04:19:06;;;;;;;16.00;10.60;;;;;;;24.32;61.96;100399.20;105547;1257;61347;-60
2023/07/06 04:21:40;;;;;;;13.60;10.50;;;;;;;24.34;62.29;100396.84;105067;1265;63736;-60
2023/07/06 04:24:07;;;;;;;13.90;10.00;;;;;;;24.39;62.16;100393.64;105003;1257;60515;-61
2023/07/06 04:26:35;;;;;;;13.60;10.10;;;;;;;24.58;61.82;100392.23;104990;1263;59286;-61
2023/07/06 04:29:04;;;;;;;14.10;10.60;;;;;;;24.67;61.87;100397.41;104986;1261;65365;-60
2023/07/06 04:31:31;;;;;;;16.80;11.90;;;;;;;24.70;61.86;100397.84;105161;1263;61921;-59
2023/07/06 04:33:59;;;;;;;15.40;11.90;;;;;;;24.66;61.67;100400.56;105711;1259;64704;-61
2023/07/06 04:36:28;;;;;;;14.00;11.60;;;;;;;24.58;61.30;100401.39;104820;1258;60916;-61
2023/07/06 04:38:55;;;;;;;13.90;11.10;;;;;;;24.53;61.07;100398.55;104799;1262;61241;-65
2023/07/06 04:41:23;;;;;;;15.40;10.40;;;;;;;24.51;61.24;100394.65;105012;1259;65017;-64
2023/07/06 04:43:51;;;;;;;15.40;11.00;;;;;;;24.52;61.25;100393.54;104935;1257;61319;-65
2023/07/06 04:46:22;;;;;;;14.00;10.40;;;;;;;24.57;61.22;100392.13;104965;1261;63769;-64
2023/07/06 04:48:49;;;;;;;14.90;10.80;;;;;;;24.60;61.21;100392.61;108819;1260;58326;-65
2023/07/06 04:51:17;;;;;;;14.60;11.40;;;;;;;24.64;61.11;100397.35;106253;1263;60479;-65
2023/07/06 04:53:44;;;;;;;13.60;11.00;;;;;;;24.69;61.17;100396.08;104864;1263;64887;-65
2023/07/06 04:56:12;;;;;;;13.50;10.60;;;;;;;24.76;61.39;100393.93;105312;1257;61364;-65
2023/07/06 04:58:41;;;;;;;12.10;9.90;;;;;;;24.82;61.24;100397.08;105605;1256;63745;-65
2023/07/06 05:01:10;;;;;;;11.70;10.40;;;;;;;24.89;60.91;100400.18;104601;1262;60480;-61
2023/07/06 05:06:43;;;;;;;14.90;11.10;;;;;;;25.14;60.42;100403.03;104672;1257;66580;-63
2023/07/06 05:09:12;;;;;;;14.40;11.80;;;;;;;25.13;60.44;100405.95;105433;1259;61782;-69
2023/07/06 05:11:39;;;;;;;13.10;11.00;;;;;;;25.14;60.27;100405.40;105098;1258;63893;-66
2023/07/06 05:17:19;;;;;;;14.20;10.70;;;;;;;25.24;59.75;100411.70;104677;1257;294284;-74
2023/07/06 05:22:17;;;;;;;17.10;11.00;;;;;;;25.18;60.33;100414.48;102433;1290;600918;-62
2023/07/06 05:24:45;;;;;;;13.90;11.20;;;;;;;25.52;59.50;100414.10;104388;1267;59324;-66
2023/07/06 05:27:13;;;;;;;14.70;11.90;;;;;;;25.66;59.18;100419.00;104835;1269;59244;-67
2023/07/06 05:29:41;;;;;;;12.20;9.90;;;;;;;25.71;59.43;100420.36;106401;1269;63801;-64
2023/07/06 05:32:08;;;;;;;14.30;11.00;;;;;;;25.83;58.90;100420.99;104469;1267;61385;-62
2023/07/06 05:34:36;;;;;;;15.90;12.30;;;;;;;25.95;58.60;100421.84;104621;1269;63754;-63
2023/07/06 05:37:04;;;;;;;13.20;11.10;;;;;;;25.95;58.76;100417.48;104799;1264;196573;-65
2023/07/06 05:39:32;;;;;;;17.70;11.50;;;;;;;25.98;58.62;100416.77;105038;1261;59419;-64
2023/07/06 05:42:09;;;;;;;15.70;12.10;;;;;;;26.02;58.52;100416.71;105259;1264;62285;-65
2023/07/06 05:44:36;;;;;;;13.80;9.90;;;;;;;26.05;58.70;100409.39;105274;1261;62484;-65
2023/07/06 05:47:07;;;;;;;12.90;11.40;;;;;;;26.06;58.50;100409.30;105138;1269;64021;-65
2023/07/06 05:49:35;;;;;;;16.10;12.30;;;;;;;26.06;58.53;100405.36;104941;1261;59996;-63
2023/07/06 05:52:06;;;;;;;14.10;12.00;;;;;;;26.04;58.51;100403.30;105038;1264;59684;-65
2023/07/06 05:54:33;;;;;;;12.00;10.30;;;;;;;26.02;58.65;100406.48;104985;1261;62910;-65
2023/07/06 05:57:02;;;;;;;12.80;11.50;;;;;;;26.02;58.61;100400.09;105662;1251;61374;-63
2023/07/06 05:59:30;;;;;;;13.50;11.70;;;;;;;26.04;58.74;100403.60;106005;1252;63708;-65
2023/07/06 06:02:48;;;;;;;13.00;10.80;;;;;;;26.05;58.55;100403.83;106055;1254;59738;-66
2023/07/06 06:05:16;;;;;;;13.30;11.90;;;;;;;26.05;58.65;100406.57;105641;1251;59718;-65
2023/07/06 06:07:44;;;;;;;14.50;12.10;;;;;;;26.11;58.75;100408.48;105697;1253;64176;-66
2023/07/06 06:10:12;;;;;;;15.20;11.60;;;;;;;26.14;58.91;100407.95;105507;1251;61391;-70
2023/07/06 06:12:41;;;;;;;15.70;12.50;;;;;;;26.20;58.73;100407.98;105765;1256;63831;-68
2023/07/06 06:15:09;;;;;;;14.00;11.20;;;;;;;26.20;58.69;100408.39;105983;1251;60077;-68
2023/07/06 06:17:44;;;;;;;14.50;12.10;;;;;;;26.24;58.42;100410.95;105430;1256;59728;-67
2023/07/06 06:20:12;;;;;;;16.10;12.30;;;;;;;26.27;58.50;100414.44;105861;1251;64158;-69
2023/07/06 06:22:42;;;;;;;14.10;12.20;;;;;;;26.36;58.78;100417.55;105516;1252;61346;-64
2023/07/06 06:25:10;;;;;;;15.00;11.90;;;;;;;26.41;58.51;100419.58;105555;1251;62795;-67
2023/07/06 06:27:37;;;;;;;15.30;12.20;;;;;;;26.47;58.61;100421.33;105449;1257;59867;-67
2023/07/06 06:30:06;;;;;;;13.50;11.90;;;;;;;26.57;58.48;100422.94;105731;1251;59767;-69
2023/07/06 06:32:34;;;;;;;15.80;11.80;;;;;;;26.66;58.27;100423.36;105555;1251;62866;-69
2023/07/06 06:35:24;;;;;;;14.20;12.70;;;;;;;26.74;58.01;100423.24;106212;1251;60284;-68
2023/07/06 06:37:52;;;;;;;15.00;13.00;;;;;;;26.78;57.75;100418.66;105775;1254;63813;-58
2023/07/06 06:40:20;;;;;;;15.00;13.50;;;;;;;26.81;58.15;100419.78;105812;1256;59702;-60
2023/07/06 06:42:48;;;;;;;16.60;12.90;;;;;;;26.87;58.14;100420.00;105528;1256;59573;-61
2023/07/06 06:45:17;;;;;;;14.90;13.10;;;;;;;26.93;58.28;100418.41;105818;1251;64271;-61
2023/07/06 06:47:45;;;;;;;14.90;12.70;;;;;;;26.99;58.36;100417.98;105979;1257;60066;-62
2023/07/06 06:50:14;;;;;;;15.30;13.20;;;;;;;27.05;58.16;100417.33;105912;1254;63728;-63
2023/07/06 06:52:41;;;;;;;16.20;13.10;;;;;;;27.14;58.26;100417.27;105518;1251;59749;-61
2023/07/06 06:55:10;;;;;;;14.20;12.50;;;;;;;27.24;58.47;100415.48;105810;1254;59645;-61
2023/07/06 06:57:37;;;;;;;14.30;12.80;;;;;;;27.34;58.03;100414.27;106193;1250;64144;-62
2023/07/06 07:00:06;;;;;;;15.50;13.30;;;;;;;27.42;57.80;100415.88;105918;1252;61306;-61
2023/07/06 07:02:33;;;;;;;16.80;13.90;;;;;;;27.50;57.82;100413.38;105851;1252;72679;-61
2023/07/06 07:05:01;;;;;;;14.90;12.60;;;;;;;27.61;57.59;100413.95;105495;1254;59752;-61
2023/07/06 07:07:28;;;;;;;25.50;12.60;;;;;;;27.72;57.32;100412.74;105928;1251;59765;-61
2023/07/06 07:09:56;;;;;;;14.60;12.00;;;;;;;27.82;57.24;100412.64;105489;1251;64199;-60
2023/07/06 07:12:25;;;;;;;13.60;11.90;;;;;;;27.91;56.92;100415.16;105632;1250;61317;-59
2023/07/06 07:14:53;;;;;;;16.60;13.70;;;;;;;27.97;56.30;100416.14;105591;1257;63842;-60
2023/07/06 07:17:20;;;;;;;15.60;13.40;;;;;;;28.00;56.17;100419.05;105800;1251;59589;-59
2023/07/06 07:19:48;;;;;;;13.70;12.30;;;;;;;28.05;56.26;100422.35;105807;1252;59736;-56
2023/07/06 07:22:16;;;;;;;14.20;12.60;;;;;;;28.13;56.35;100419.52;105548;1251;64139;-58
2023/07/06 07:24:44;;;;;;;13.70;12.20;;;;;;;28.19;56.49;100418.48;105692;1251;61670;-54
2023/07/06 07:27:11;;;;;;;13.50;11.50;;;;;;;28.27;55.99;100419.67;105610;1254;64328;-63
2023/07/06 07:29:42;;;;;;;15.90;13.30;;;;;;;28.38;55.67;100418.75;105700;1251;59694;-63
2023/07/06 07:32:10;;;;;;;13.30;11.90;;;;;;;28.46;55.16;100415.77;105703;1256;59550;-62
2023/07/06 07:34:38;;;;;;;13.20;11.40;;;;;;;28.54;54.64;100419.13;105632;1256;64142;-64
2023/07/06 07:37:07;;;;;;;14.70;12.00;;;;;;;28.61;54.63;100414.67;105494;1256;70853;-63
2023/07/06 07:39:34;;;;;;;13.90;11.90;;;;;;;28.67;54.46;100413.81;105642;1256;63713;-62
2023/07/06 07:42:03;;;;;;;13.20;11.60;;;;;;;28.74;54.07;100411.62;105481;1251;59659;-64
2023/07/06 07:44:30;;;;;;;12.80;11.50;;;;;;;28.82;53.83;100411.11;105672;1251;59787;-66
2023/07/06 07:46:58;;;;;;;13.90;11.80;;;;;;;28.91;53.79;100410.45;105651;1251;64247;-63
2023/07/06 07:49:25;;;;;;;13.90;10.70;;;;;;;28.98;53.37;100411.18;105800;1251;61318;-63
2023/07/06 07:51:53;;;;;;;13.50;11.20;;;;;;;29.07;53.27;100413.02;105998;1255;62731;-64
2023/07/06 07:54:22;;;;;;;12.40;11.00;;;;;;;29.16;52.98;100410.42;105462;1251;59748;-63
2023/07/06 07:56:54;;;;;;;15.80;12.00;;;;;;;29.23;53.03;100412.00;105847;1251;59697;-63
2023/07/06 07:59:23;;;;;;;12.90;11.60;;;;;;;29.30;53.18;100412.71;105798;1257;64568;-69
2023/07/06 08:01:51;;;;;;;12.80;10.80;;;;;;;29.33;52.84;100416.61;105724;1251;61846;-64
2023/07/06 08:04:25;;;;;;;11.50;10.30;;;;;;;29.35;52.50;100414.14;105861;1251;63800;-65
2023/07/06 08:06:54;;;;;;;13.00;11.60;;;;;;;29.40;52.30;100413.13;105641;1252;59749;-66
2023/07/06 08:12:46;;;;;;;11.60;10.50;;;;;;;29.43;51.82;100415.84;105513;1251;62807;-66
2023/07/06 08:15:14;;;;;;;12.10;10.50;;;;;;;29.48;51.87;100412.39;105669;1257;62109;-67
2023/07/06 08:17:41;;;;;;;13.30;10.40;;;;;;;29.56;51.79;100411.31;105652;1257;63830;-65
2023/07/06 08:20:10;;;;;;;11.50;10.40;;;;;;;29.61;50.68;100409.39;105848;1252;59725;-65
2023/07/06 08:22:58;;;;;;;11.50;10.40;;;;;;;29.64;49.97;100409.11;105696;1256;59686;-66
2023/07/06 08:26:03;;;;;;;11.60;10.40;;;;;;;29.64;49.18;100413.23;105979;1251;64143;-67
2023/07/06 08:28:33;;;;;;;10.60;9.50;;;;;;;29.65;49.07;100415.74;105515;1251;61448;-67
2023/07/06 08:31:02;;;;;;;10.40;9.30;;;;;;;29.67;49.21;100414.77;105517;1254;62569;-65
2023/07/06 08:33:32;;;;;;;11.40;9.70;;;;;;;29.68;49.25;100413.11;105775;1251;59653;-67
2023/07/06 08:36:01;;;;;;;13.70;9.80;;;;;;;29.69;48.99;100415.47;105672;1257;59688;-63
2023/07/06 08:38:31;;;;;;;12.00;9.90;;;;;;;29.71;49.00;100413.86;105751;1252;64209;-61
2023/07/06 08:41:03;;;;;;;12.20;9.80;;;;;;;29.76;49.05;100409.50;105763;1257;62637;-64
2023/07/06 08:43:31;;;;;;;11.60;9.70;;;;;;;29.84;49.64;100403.66;105744;1254;63708;-64
2023/07/06 08:46:02;;;;;;;11.60;10.40;;;;;;;29.94;49.41;100400.71;105640;1251;59635;-64
2023/07/06 08:48:32;;;;;;;12.80;10.60;;;;;;;29.97;48.46;100402.91;105762;1257;59735;-65
2023/07/06 08:51:01;;;;;;;11.20;10.10;;;;;;;29.98;47.99;100403.52;105735;1254;64698;-65
2023/07/06 08:53:32;;;;;;;11.20;10.00;;;;;;;30.00;48.00;100402.20;105754;1257;60237;-66
2023/07/06 08:56:03;;;;;;;12.50;10.10;;;;;;;30.02;47.74;100400.05;106430;1254;63735;-66
2023/07/06 08:58:32;;;;;;;10.70;9.60;;;;;;;30.04;47.52;100399.64;105604;1256;59845;-63
2023/07/06 09:01:10;;;;;;;11.00;9.90;;;;;;;30.07;47.30;100400.29;105605;1251;59836;-64
2023/07/06 09:03:46;;;;;;;12.20;10.40;;;;;;;30.11;47.22;100397.49;105632;1252;64187;-60
2023/07/06 09:06:19;;;;;;;10.70;9.60;;;;;;;30.17;47.52;100396.00;105697;1251;61366;-60
2023/07/06 09:08:48;;;;;;;10.50;9.20;;;;;;;30.27;47.04;100397.70;105708;1251;64289;-61
2023/07/06 09:11:15;;;;;;;10.80;9.70;;;;;;;30.39;46.90;100396.01;105864;1251;59758;-62
2023/07/06 09:13:50;;;;;;;10.20;9.00;;;;;;;30.52;46.78;100396.10;105377;1251;59842;-62
2023/07/06 09:16:20;;;;;;;10.10;9.00;;;;;;;30.66;46.56;100395.80;105731;1257;64576;-63
2023/07/06 09:18:50;;;;;;;10.70;9.00;;;;;;;30.82;46.54;100395.85;106088;1257;60693;-63
2023/07/06 09:21:22;;;;;;;11.50;8.90;;;;;;;30.98;46.06;100392.96;105890;1253;63778;-62
2023/07/06 09:23:50;;;;;;;10.80;9.40;;;;;;;31.09;45.38;100392.26;109079;1251;57575;-63
2023/07/06 09:26:26;;;;;;;10.30;8.80;;;;;;;31.18;44.70;100392.94;107494;1251;59714;-63
2023/07/06 09:29:20;;;;;;;9.40;8.40;;;;;;;31.25;44.26;100392.00;107528;1251;62929;-59
2023/07/06 09:31:48;;;;;;;10.20;8.90;;;;;;;31.29;43.88;100392.20;105602;1257;60213;-62
2023/07/06 09:34:27;;;;;;;12.40;8.50;;;;;;;31.34;43.95;100390.88;105725;1251;64275;-63
2023/07/06 09:36:54;;;;;;;10.10;8.90;;;;;;;31.36;43.51;100389.90;105518;1259;60555;-63
2023/07/06 09:39:23;;;;;;;9.90;8.90;;;;;;;31.38;43.15;100388.94;107421;1251;60508;-61
2023/07/06 09:41:52;;;;;;;8.90;8.00;;;;;;;31.39;42.97;100390.52;109438;1251;65367;-63
2023/07/06 09:44:27;;;;;;;8.30;7.30;;;;;;;31.44;43.42;100389.09;109453;1251;60123;-62
2023/07/06 09:46:55;;;;;;;9.60;7.70;;;;;;;31.53;43.00;100384.05;109406;1251;62528;-63
2023/07/06 09:49:28;;;;;;;9.30;8.10;;;;;;;31.62;42.33;100385.33;109362;1252;58409;-63
2023/07/06 09:52:11;;;;;;;9.70;8.10;;;;;;;31.73;41.97;100385.27;107490;1251;60466;-62
2023/07/06 09:55:13;;;;;;;9.10;7.60;;;;;;;31.83;41.81;100389.13;105316;1251;63650;-61
2023/07/06 09:57:41;;;;;;;8.20;7.40;;;;;;;31.97;41.68;100389.58;105646;1250;61397;-60
2023/07/06 10:00:17;;;;;;;9.20;6.70;;;;;;;32.07;41.47;100389.84;109277;1250;62429;-61
2023/07/06 10:02:53;;;;;;;7.40;6.50;;;;;;;32.17;40.59;100387.56;109422;1252;58740;-61
2023/07/06 10:05:35;;;;;;;7.50;6.70;;;;;;;32.22;39.65;100388.55;109424;1250;58460;-62
2023/07/06 10:08:13;;;;;;;7.80;6.60;;;;;;;32.28;39.59;100389.17;109301;1251;65461;-61
2023/07/06 10:10:50;;;;;;;7.60;6.80;;;;;;;32.34;39.57;100390.83;106560;1252;61456;-63
2023/07/06 10:13:39;;;;;;;9.70;7.20;;;;;;;32.39;40.19;100388.61;105638;1254;63745;-63
2023/07/06 10:16:20;;;;;;;8.50;7.40;;;;;;;32.50;40.18;100387.27;105738;1251;60424;-62
2023/07/06 10:19:10;;;;;;;7.80;7.00;;;;;;;32.61;39.96;100386.77;109337;1251;58424;-63
2023/07/06 10:21:41;;;;;;;8.10;6.90;;;;;;;32.65;39.14;100379.05;108614;1256;65428;-61
2023/07/06 10:24:16;;;;;;;7.60;5.50;;;;;;;32.68;38.03;100378.23;105776;1257;60794;-61
2023/07/06 10:26:47;;;;;;;;;;;;;;;32.74;38.00;100375.95;105667;1257;66310;-62
2023/07/06 10:29:27;;;;;;;7.00;6.30;;;;;;;32.81;37.66;100373.55;105508;1256;60567;-61
2023/07/06 10:32:04;;;;;;;8.50;6.40;;;;;;;32.90;38.24;100372.59;105793;1251;60901;-60
2023/07/06 10:34:35;;;;;;;7.70;6.30;;;;;;;33.03;37.66;100370.08;106166;1251;63718;-61
2023/07/06 10:37:03;;;;;;;8.30;6.90;;;;;;;33.16;37.03;100364.69;105768;1251;62626;-60
2023/07/06 10:39:30;;;;;;;6.90;5.90;;;;;;;33.29;36.96;100367.03;105427;1252;63671;-57
2023/07/06 10:42:09;;;;;;;7.00;6.30;;;;;;;33.40;36.82;100368.70;105674;1254;60552;-60
2023/07/06 10:44:41;;;;;;;8.20;6.70;;;;;;;33.51;36.96;100368.13;105498;1257;61800;-62
2023/07/06 10:47:36;;;;;;;10.10;6.70;;;;;;;33.66;37.26;100362.64;106146;1257;63649;-66
2023/07/06 10:50:55;;;;;;;8.60;6.30;;;;;;;33.81;36.48;100367.08;105676;1251;62880;-63
2023/07/06 10:53:36;;;;;;;8.80;6.80;;;;;;;33.90;36.30;100362.52;105540;1258;63839;-63
2023/07/06 10:56:12;;;;;;;8.90;6.50;;;;;;;33.97;37.39;100361.67;105691;1250;60514;-63
2023/07/06 10:59:04;;;;;;;7.10;6.30;;;;;;;34.06;37.21;100358.61;106033;1252;60382;-62
2023/07/06 11:01:39;;;;;;;9.20;7.30;;;;;;;34.14;37.26;100358.73;105818;1256;64873;-62
2023/07/06 11:04:46;;;;;;;10.50;7.70;;;;;;;34.25;37.45;100358.43;105722;1257;61599;-60
2023/07/06 11:07:46;;;;;;;7.80;7.00;;;;;;;34.39;37.47;100358.14;105613;1265;63741;-61
2023/07/06 11:10:14;;;;;;;9.10;6.90;;;;;;;34.43;36.42;100353.64;105977;1252;60568;-62
2023/07/06 11:13:12;;;;;;;7.30;6.50;;;;;;;34.47;36.20;100349.96;106008;1251;60444;-60
2023/07/06 11:15:56;;;;;;;8.40;6.80;;;;;;;34.48;35.98;100347.86;105435;1251;64935;-60
2023/07/06 11:18:33;;;;;;;10.00;7.10;;;;;;;34.51;36.29;100344.40;105989;1251;61783;-63
2023/07/06 11:21:16;;;;;;;8.40;6.70;;;;;;;34.55;36.05;100345.79;105617;1254;64222;-61
2023/07/06 11:23:55;;;;;;;9.10;7.60;;;;;;;34.56;36.15;100343.97;105689;1252;60553;-61
2023/07/06 11:26:43;;;;;;;8.60;7.10;;;;;;;34.60;36.54;100343.57;106152;1251;60639;-63
2023/07/06 11:29:11;;;;;;;8.80;7.60;;;;;;;34.67;36.54;100336.52;106075;1251;63771;-62
2023/07/06 11:31:48;;;;;;;9.40;6.60;;;;;;;34.72;35.64;100333.23;105654;1257;60530;-61
2023/07/06 11:34:35;;;;;;;7.50;6.30;;;;;;;34.70;34.69;100332.58;105663;1256;63945;-61
2023/07/06 11:37:21;;;;;;;8.10;6.60;;;;;;;34.64;34.06;100325.52;105648;1251;61064;-60
2023/07/06 11:44:16;;;;;;;8.20;7.20;;;;;;;34.63;35.18;100317.88;105675;1256;64840;-66
2023/07/06 11:47:27;;;;;;;7.50;6.50;;;;;;;34.69;34.65;100310.16;105733;1251;61534;-59
2023/07/06 11:49:59;;;;;;;7.70;6.50;;;;;;;34.75;35.26;100304.40;105284;1250;63907;-63
2023/07/06 11:52:32;;;;;;;7.80;7.00;;;;;;;34.77;35.78;100298.59;105562;1256;60553;-64
2023/07/06 11:55:18;;;;;;;9.50;7.60;;;;;;;34.80;36.04;100295.08;106043;1257;60603;-64
2023/07/06 11:58:04;;;;;;;8.20;7.30;;;;;;;34.85;36.38;100288.95;105179;1251;63676;-63
2023/07/06 12:00:48;;;;;;;12.00;7.70;;;;;;;34.81;36.05;100283.70;105577;1251;61382;-65
2023/07/06 12:03:16;;;;;;;8.20;6.70;;;;;;;34.84;35.76;100282.35;105421;1258;63665;-63